Time,TemperatureF,DewpointF,PressureIn,WindDirection,WindDirectionDegrees,WindSpeedMPH,WindSpeedGustMPH,Humidity,HourlyPrecipIn,Conditions,Clouds,dailyrainin,SolarRadiationWatts/m^2,SoftwareType,DateUTC
2013-04-14 00:01:00,38.0,28.7,29.77,West,277,10.0,22.0,69,0.00,,,0.00,0,WeatherCatV1.15B25,2013-04-14 07:01:00,
2013-04-14 00:05:00,38.0,28.7,29.77,NW,313,15.0,22.0,69,0.00,,,0.00,0,WeatherCatV1.15B25,2013-04-14 07:05:00,
2013-04-14 00:11:00,38.2,27.9,29.77,WNW,293,14.0,17.0,66,0.00,,,0.00,0,WeatherCatV1.15B25,2013-04-14 07:11:00,
2013-04-14 00:16:00,38.2,27.9,29.76,WNW,283,12.0,20.0,66,0.00,,,0.00,0,WeatherCatV1.15B25,2013-04-14 07:16:00,
2013-04-14 00:21:00,38.0,28.4,29.76,West,261,9.0,19.0,68,0.00,,,0.00,0,WeatherCatV1.15B25,2013-04-14 07:21:00,
2013-04-14 00:25:00,37.9,26.8,29.76,WNW,299,10.0,18.0,64,0.00,,,0.00,0,WeatherCatV1.15B25,2013-04-14 07:25:00,
2013-04-14 00:30:00,37.9,26.8,29.76,WNW,293,14.0,20.0,64,0.00,,,0.00,0,WeatherCatV1.15B25,2013-04-14 07:30:00,
2013-04-14 00:35:00,37.9,27.2,29.76,WNW,293,14.0,18.0,65,0.00,,,0.00,0,WeatherCatV1.15B25,2013-04-14 07:35:00,
2013-04-14 00:40:00,37.8,27.1,29.76,WNW,288,15.0,19.0,65,0.00,,,0.00,0,WeatherCatV1.15B25,2013-04-14 07:40:00,
2013-04-14 00:45:00,37.6,27.6,29.77,NW,323,12.0,18.0,67,0.00,,,0.00,0,WeatherCatV1.15B25,2013-04-14 07:45:00,
2013-04-14 00:50:00,37.3,27.4,29.77,WNW,288,15.0,19.0,67,0.00,,,0.00,0,WeatherCatV1.15B25,2013-04-14 07:50:00,
2013-04-14 00:55:00,37.2,27.3,29.77,West,270,11.0,17.0,67,0.00,,,0.00,0,WeatherCatV1.15B25,2013-04-14 07:55:00,
2013-04-14 01:00:00,37.2,27.3,29.78,WSW,251,14.0,22.0,67,0.00,,,0.00,0,WeatherCatV1.15B25,2013-04-14 08:00:00,
2013-04-14 01:05:00,37.2,27.3,29.78,WNW,283,10.0,18.0,67,0.00,,,0.00,0,WeatherCatV1.15B25,2013-04-14 08:05:00,
2013-04-14 01:10:00,37.2,26.9,29.78,WNW,299,15.0,18.0,66,0.00,,,0.00,0,WeatherCatV1.15B25,2013-04-14 08:10:00,
2013-04-14 01:16:00,37.3,26.6,29.78,West,263,12.0,19.0,65,0.00,,,0.00,0,WeatherCatV1.15B25,2013-04-14 08:16:00,
2013-04-14 01:20:00,37.5,26.8,29.78,NW,307,15.0,18.0,65,0.00,,,0.00,0,WeatherCatV1.15B25,2013-04-14 08:20:00,
2013-04-14 01:25:00,37.3,27.0,29.78,NW,316,8.0,13.0,66,0.00,,,0.00,0,WeatherCatV1.15B25,2013-04-14 08:25:00,
2013-04-14 01:31:00,37.0,27.1,29.77,WNW,283,7.0,15.0,67,0.00,,,0.00,0,WeatherCatV1.15B25,2013-04-14 08:31:00,
2013-04-14 01:35:00,36.9,27.0,29.77,WNW,283,9.0,16.0,67,0.00,,,0.00,0,WeatherCatV1.15B25,2013-04-14 08:35:00,
2013-04-14 01:41:00,36.8,27.2,29.77,West,261,5.0,13.0,68,0.00,,,0.00,0,WeatherCatV1.15B25,2013-04-14 08:41:00,
2013-04-14 01:45:00,36.6,27.1,29.77,WNW,288,6.0,16.0,68,0.00,,,0.00,0,WeatherCatV1.15B25,2013-04-14 08:45:00,
2013-04-14 01:50:00,36.8,26.5,29.77,WNW,288,11.0,15.0,66,0.00,,,0.00,0,WeatherCatV1.15B25,2013-04-14 08:50:00,
2013-04-14 01:55:00,36.8,26.9,29.77,NW,305,9.0,16.0,67,0.00,,,0.00,0,WeatherCatV1.15B25,2013-04-14 08:55:00,
2013-04-14 02:00:00,36.8,26.9,29.77,WNW,300,6.0,17.0,67,0.00,,,0.00,0,WeatherCatV1.15B25,2013-04-14 09:00:00,
2013-04-14 02:05:00,36.9,27.0,29.77,WNW,293,16.0,16.0,67,0.00,,,0.00,0,WeatherCatV1.15B25,2013-04-14 09:05:00,
2013-04-14 02:10:00,36.9,27.0,29.77,NW,311,12.0,17.0,67,0.00,,,0.00,0,WeatherCatV1.15B25,2013-04-14 09:10:00,
2013-04-14 02:15:00,36.8,27.2,29.75,WNW,303,14.0,16.0,68,0.00,,,0.00,0,WeatherCatV1.15B25,2013-04-14 09:15:00,
2013-04-14 02:21:00,36.5,27.0,29.75,WNW,299,12.0,16.0,68,0.00,,,0.00,0,WeatherCatV1.15B25,2013-04-14 09:21:00,
2013-04-14 02:25:00,36.2,27.0,29.75,WNW,303,15.0,17.0,69,0.00,,,0.00,0,WeatherCatV1.15B25,2013-04-14 09:25:00,
2013-04-14 02:30:00,35.9,26.7,29.75,NW,320,11.0,16.0,69,0.00,,,0.00,0,WeatherCatV1.15B25,2013-04-14 09:30:00,
2013-04-14 02:35:00,35.9,26.4,29.75,WNW,303,15.0,20.0,68,0.00,,,0.00,0,WeatherCatV1.15B25,2013-04-14 09:35:00,
2013-04-14 02:41:00,35.9,26.4,29.75,WNW,293,11.0,20.0,68,0.00,,,0.00,0,WeatherCatV1.15B25,2013-04-14 09:41:00,
2013-04-14 02:45:00,36.0,26.1,29.75,West,278,12.0,19.0,67,0.00,,,0.00,0,WeatherCatV1.15B25,2013-04-14 09:45:00,
2013-04-14 02:50:00,36.2,26.3,29.75,NW,306,19.0,19.0,67,0.00,,,0.00,0,WeatherCatV1.15B25,2013-04-14 09:50:00,
2013-04-14 02:55:00,36.3,26.4,29.75,WNW,297,20.0,22.0,67,0.00,,,0.00,0,WeatherCatV1.15B25,2013-04-14 09:55:00,
2013-04-14 03:01:00,36.5,26.2,29.74,West,268,9.0,20.0,66,0.00,,,0.00,0,WeatherCatV1.15B25,2013-04-14 10:01:00,
2013-04-14 03:07:00,36.6,26.7,29.74,West,272,14.0,21.0,67,0.00,,,0.00,0,WeatherCatV1.15B25,2013-04-14 10:07:00,
2013-04-14 03:12:00,36.6,26.3,29.74,West,274,6.0,20.0,66,0.00,,,0.00,0,WeatherCatV1.15B25,2013-04-14 10:12:00,
2013-04-14 03:17:00,36.5,27.0,29.74,WNW,297,17.0,17.0,68,0.00,,,0.00,0,WeatherCatV1.15B25,2013-04-14 10:17:00,
2013-04-14 03:23:00,36.2,27.0,29.74,WNW,288,6.0,11.0,69,0.00,,,0.00,0,WeatherCatV1.15B25,2013-04-14 10:23:00,
2013-04-14 03:28:00,35.9,26.7,29.74,West,279,5.0,12.0,69,0.00,,,0.00,0,WeatherCatV1.15B25,2013-04-14 10:28:00,
2013-04-14 03:33:00,35.8,26.3,29.74,WNW,297,7.0,14.0,68,0.00,,,0.00,0,WeatherCatV1.15B25,2013-04-14 10:33:00,
2013-04-14 03:38:00,35.8,26.3,29.74,WNW,293,7.0,11.0,68,0.00,,,0.00,0,WeatherCatV1.15B25,2013-04-14 10:38:00,
2013-04-14 03:43:00,35.9,26.4,29.74,WNW,297,9.0,17.0,68,0.00,,,0.00,0,WeatherCatV1.15B25,2013-04-14 10:43:00,
2013-04-14 03:48:00,36.0,26.5,29.73,WNW,283,14.0,14.0,68,0.00,,,0.00,0,WeatherCatV1.15B25,2013-04-14 10:48:00,
2013-04-14 03:53:00,36.2,26.7,29.73,West,279,5.0,12.0,68,0.00,,,0.00,0,WeatherCatV1.15B25,2013-04-14 10:53:00,
2013-04-14 03:58:00,36.3,26.0,29.73,West,266,9.0,17.0,66,0.00,,,0.00,0,WeatherCatV1.15B25,2013-04-14 10:58:00,
2013-04-14 04:03:00,36.6,26.0,29.73,WSW,253,5.0,14.0,65,0.00,,,0.00,0,WeatherCatV1.15B25,2013-04-14 11:03:00,
2013-04-14 04:08:00,36.8,26.2,29.73,West,265,6.0,13.0,65,0.00,,,0.00,0,WeatherCatV1.15B25,2013-04-14 11:08:00,
2013-04-14 04:13:00,36.6,26.3,29.73,NW,312,9.0,12.0,66,0.00,,,0.00,0,WeatherCatV1.15B25,2013-04-14 11:13:00,
2013-04-14 04:18:00,36.5,26.2,29.73,WSW,243,11.0,14.0,66,0.00,,,0.00,0,WeatherCatV1.15B25,2013-04-14 11:18:00,
2013-04-14 04:23:00,36.3,26.8,29.73,West,263,5.0,13.0,68,0.00,,,0.00,0,WeatherCatV1.15B25,2013-04-14 11:23:00,
2013-04-14 04:28:00,36.2,26.3,29.73,WSW,258,3.0,12.0,67,0.00,,,0.00,0,WeatherCatV1.15B25,2013-04-14 11:28:00,
2013-04-14 04:33:00,36.2,27.4,29.73,West,272,9.0,14.0,70,0.00,,,0.00,0,WeatherCatV1.15B25,2013-04-14 11:33:00,
2013-04-14 04:38:00,36.0,26.5,29.73,West,274,6.0,17.0,68,0.00,,,0.00,0,WeatherCatV1.15B25,2013-04-14 11:38:00,
2013-04-14 04:43:00,36.2,25.6,29.73,West,270,3.0,12.0,65,0.00,,,0.00,0,WeatherCatV1.15B25,2013-04-14 11:43:00,
2013-04-14 04:48:00,36.3,26.0,29.72,WNW,288,12.0,13.0,66,0.00,,,0.00,0,WeatherCatV1.15B25,2013-04-14 11:48:00,
2013-04-14 04:53:00,36.3,26.0,29.72,WNW,288,6.0,12.0,66,0.00,,,0.00,0,WeatherCatV1.15B25,2013-04-14 11:53:00,
2013-04-14 04:58:00,36.3,25.7,29.72,NW,310,11.0,15.0,65,0.00,,,0.00,0,WeatherCatV1.15B25,2013-04-14 11:58:00,
2013-04-14 05:03:00,36.3,25.7,29.72,NW,306,11.0,15.0,65,0.00,,,0.00,0,WeatherCatV1.15B25,2013-04-14 12:03:00,
2013-04-14 05:08:00,36.3,25.7,29.72,WNW,283,6.0,13.0,65,0.00,,,0.00,0,WeatherCatV1.15B25,2013-04-14 12:08:00,
2013-04-14 05:13:00,36.3,26.4,29.72,WNW,293,6.0,11.0,67,0.00,,,0.00,0,WeatherCatV1.15B25,2013-04-14 12:13:00,
2013-04-14 05:18:00,36.0,26.1,29.73,WNW,299,9.0,14.0,67,0.00,,,0.00,0,WeatherCatV1.15B25,2013-04-14 12:18:00,
2013-04-14 05:23:00,35.9,25.3,29.73,West,272,11.0,13.0,65,0.00,,,0.00,0,WeatherCatV1.15B25,2013-04-14 12:23:00,
2013-04-14 05:28:00,35.9,26.0,29.73,WSW,252,5.0,14.0,67,0.00,,,0.00,0,WeatherCatV1.15B25,2013-04-14 12:28:00,
2013-04-14 05:33:00,35.9,26.4,29.74,WNW,283,5.0,10.0,68,0.00,,,0.00,0,WeatherCatV1.15B25,2013-04-14 12:33:00,
2013-04-14 05:38:00,35.9,26.0,29.74,WSW,257,11.0,17.0,67,0.00,,,0.00,0,WeatherCatV1.15B25,2013-04-14 12:38:00,
2013-04-14 05:43:00,35.9,25.7,29.74,WNW,293,9.0,14.0,66,0.00,,,0.00,0,WeatherCatV1.15B25,2013-04-14 12:43:00,
2013-04-14 05:48:00,35.9,26.0,29.73,WNW,293,11.0,15.0,67,0.00,,,0.00,0,WeatherCatV1.15B25,2013-04-14 12:48:00,
2013-04-14 05:53:00,36.0,26.1,29.73,WNW,293,9.0,13.0,67,0.00,,,0.00,0,WeatherCatV1.15B25,2013-04-14 12:53:00,
2013-04-14 05:58:00,36.0,26.1,29.73,WSW,258,14.0,15.0,67,0.00,,,0.00,0,WeatherCatV1.15B25,2013-04-14 12:58:00,
2013-04-14 06:03:00,36.2,26.7,29.73,WSW,256,9.0,14.0,68,0.00,,,0.00,0,WeatherCatV1.15B25,2013-04-14 13:03:00,
2013-04-14 06:08:00,36.2,27.4,29.73,WNW,302,6.0,12.0,70,0.00,,,0.00,0,WeatherCatV1.15B25,2013-04-14 13:08:00,
2013-04-14 06:13:00,36.0,25.8,29.73,West,264,9.0,13.0,66,0.00,,,0.00,0,WeatherCatV1.15B25,2013-04-14 13:13:00,
2013-04-14 06:18:00,36.0,26.8,29.75,WSW,250,11.0,15.0,69,0.00,,,0.00,0,WeatherCatV1.15B25,2013-04-14 13:18:00,
2013-04-14 06:23:00,36.0,26.8,29.75,West,261,5.0,9.0,69,0.00,,,0.00,5,WeatherCatV1.15B25,2013-04-14 13:23:00,
2013-04-14 06:28:00,35.9,26.7,29.75,West,270,5.0,18.0,69,0.00,,,0.00,9,WeatherCatV1.15B25,2013-04-14 13:28:00,
2013-04-14 06:34:00,35.9,27.1,29.74,NW,322,12.0,12.0,70,0.00,,,0.00,14,WeatherCatV1.15B25,2013-04-14 13:34:00,
2013-04-14 06:39:00,35.8,27.7,29.74,WNW,288,7.0,11.0,72,0.00,,,0.00,19,WeatherCatV1.15B25,2013-04-14 13:39:00,
2013-04-14 06:44:00,35.8,27.0,29.74,West,262,4.0,14.0,70,0.00,,,0.00,23,WeatherCatV1.15B25,2013-04-14 13:44:00,
2013-04-14 06:49:00,35.9,26.7,29.74,WNW,288,11.0,15.0,69,0.00,,,0.00,28,WeatherCatV1.15B25,2013-04-14 13:49:00,
2013-04-14 06:54:00,36.2,26.7,29.74,West,270,5.0,12.0,68,0.00,,,0.00,33,WeatherCatV1.15B25,2013-04-14 13:54:00,
2013-04-14 06:59:00,36.2,26.0,29.74,WNW,283,6.0,11.0,66,0.00,,,0.00,42,WeatherCatV1.15B25,2013-04-14 13:59:00,
2013-04-14 07:04:00,36.5,24.7,29.75,West,266,9.0,12.0,62,0.00,,,0.00,56,WeatherCatV1.15B25,2013-04-14 14:04:00,
2013-04-14 07:09:00,36.8,23.4,29.75,NW,308,13.0,15.0,58,0.00,,,0.00,70,WeatherCatV1.15B25,2013-04-14 14:09:00,
2013-04-14 07:14:00,37.2,23.4,29.75,WSW,256,2.0,10.0,57,0.00,,,0.00,84,WeatherCatV1.15B25,2013-04-14 14:14:00,
2013-04-14 07:19:00,37.5,24.1,29.78,WSW,255,10.0,12.0,58,0.00,,,0.00,83,WeatherCatV1.15B25,2013-04-14 14:19:00,
2013-04-14 07:24:00,37.8,22.7,29.78,West,270,10.0,17.0,54,0.00,,,0.00,104,WeatherCatV1.15B25,2013-04-14 14:24:00,
2013-04-14 07:29:00,38.0,23.3,29.78,WNW,293,8.0,12.0,55,0.00,,,0.00,114,WeatherCatV1.15B25,2013-04-14 14:29:00,
2013-04-14 07:34:00,38.0,23.3,29.77,West,261,3.0,5.0,55,0.00,,,0.00,134,WeatherCatV1.15B25,2013-04-14 14:34:00,
2013-04-14 07:39:00,38.0,23.7,29.77,WNW,288,10.0,13.0,56,0.00,,,0.00,156,WeatherCatV1.15B25,2013-04-14 14:39:00,
2013-04-14 07:44:00,38.2,23.5,29.77,WSW,239,4.0,11.0,55,0.00,,,0.00,165,WeatherCatV1.15B25,2013-04-14 14:44:00,
2013-04-14 07:49:00,38.3,23.1,29.77,WNW,299,9.0,16.0,54,0.00,,,0.00,181,WeatherCatV1.15B25,2013-04-14 14:49:00,
2013-04-14 07:54:00,38.5,22.4,29.77,West,264,10.0,11.0,52,0.00,,,0.00,195,WeatherCatV1.15B25,2013-04-14 14:54:00,
2013-04-14 07:59:00,38.8,21.8,29.77,WNW,302,9.0,15.0,50,0.00,,,0.00,227,WeatherCatV1.15B25,2013-04-14 14:59:00,
2013-04-14 08:04:00,38.9,22.3,29.74,WSW,247,6.0,12.0,51,0.00,,,0.00,236,WeatherCatV1.15B25,2013-04-14 15:04:00,
2013-04-14 08:09:00,39.1,22.5,29.74,NW,305,10.0,14.0,51,0.00,,,0.00,230,WeatherCatV1.15B25,2013-04-14 15:09:00,
2013-04-14 08:14:00,39.2,23.5,29.74,WNW,293,4.0,11.0,53,0.00,,,0.00,279,WeatherCatV1.15B25,2013-04-14 15:14:00,
2013-04-14 08:19:00,39.3,21.8,29.76,West,263,10.0,15.0,49,0.00,,,0.00,297,WeatherCatV1.15B25,2013-04-14 15:19:00,
2013-04-14 08:24:00,39.6,22.0,29.76,WNW,288,13.0,14.0,49,0.00,,,0.00,315,WeatherCatV1.15B25,2013-04-14 15:24:00,
2013-04-14 08:29:00,39.9,21.8,29.76,WNW,283,10.0,13.0,48,0.00,,,0.00,323,WeatherCatV1.15B25,2013-04-14 15:29:00,
2013-04-14 08:34:00,40.2,21.6,29.75,WNW,293,7.0,15.0,47,0.00,,,0.00,348,WeatherCatV1.15B25,2013-04-14 15:34:00,
2013-04-14 08:39:00,40.3,21.2,29.75,NW,305,15.0,18.0,46,0.00,,,0.00,373,WeatherCatV1.15B25,2013-04-14 15:39:00,
2013-04-14 08:44:00,40.5,22.4,29.75,WNW,283,11.0,16.0,48,0.00,,,0.00,322,WeatherCatV1.15B25,2013-04-14 15:44:00,
2013-04-14 08:49:00,40.6,22.5,29.74,West,276,5.0,14.0,48,0.00,,,0.00,381,WeatherCatV1.15B25,2013-04-14 15:49:00,
2013-04-14 08:54:00,40.6,23.0,29.74,WSW,238,5.0,12.0,49,0.00,,,0.00,410,WeatherCatV1.15B25,2013-04-14 15:54:00,
2013-04-14 08:59:00,40.8,24.1,29.74,WSW,237,6.0,12.0,51,0.00,,,0.00,434,WeatherCatV1.15B25,2013-04-14 15:59:00,
2013-04-14 09:04:00,40.9,24.2,29.74,West,261,10.0,12.0,51,0.00,,,0.00,448,WeatherCatV1.15B25,2013-04-14 16:04:00,
2013-04-14 09:10:00,41.2,23.0,29.74,WNW,288,13.0,15.0,48,0.00,,,0.00,469,WeatherCatV1.15B25,2013-04-14 16:10:00,
2013-04-14 09:15:00,41.2,23.0,29.77,SW,222,7.0,15.0,48,0.00,,,0.00,483,WeatherCatV1.15B25,2013-04-14 16:15:00,
2013-04-14 09:20:00,41.5,22.8,29.77,WNW,283,10.0,16.0,47,0.00,,,0.00,497,WeatherCatV1.15B25,2013-04-14 16:20:00,
2013-04-14 09:25:00,41.6,22.9,29.77,WNW,288,13.0,23.0,47,0.00,,,0.00,513,WeatherCatV1.15B25,2013-04-14 16:25:00,
2013-04-14 09:30:00,41.5,22.3,29.75,WNW,283,11.0,21.0,46,0.00,,,0.00,531,WeatherCatV1.15B25,2013-04-14 16:30:00,
2013-04-14 09:35:00,41.6,22.9,29.75,WNW,283,21.0,21.0,47,0.00,,,0.00,550,WeatherCatV1.15B25,2013-04-14 16:35:00,
2013-04-14 09:40:00,41.6,23.4,29.75,WNW,293,19.0,24.0,48,0.00,,,0.00,564,WeatherCatV1.15B25,2013-04-14 16:40:00,
2013-04-14 09:45:00,41.8,23.1,29.76,WNW,299,15.0,22.0,47,0.00,,,0.00,578,WeatherCatV1.15B25,2013-04-14 16:45:00,
2013-04-14 09:50:00,41.8,22.6,29.76,NW,307,15.0,27.0,46,0.00,,,0.00,591,WeatherCatV1.15B25,2013-04-14 16:50:00,
2013-04-14 09:55:00,41.6,23.4,29.76,NW,316,20.0,22.0,48,0.00,,,0.00,606,WeatherCatV1.15B25,2013-04-14 16:55:00,
2013-04-14 10:00:00,41.8,23.1,29.75,West,268,10.0,18.0,47,0.00,,,0.00,596,WeatherCatV1.15B25,2013-04-14 17:00:00,
2013-04-14 10:05:00,42.2,23.4,29.75,WNW,288,18.0,21.0,47,0.00,,,0.00,631,WeatherCatV1.15B25,2013-04-14 17:05:00,
2013-04-14 10:10:00,42.3,23.0,29.75,West,279,10.0,25.0,46,0.00,,,0.00,647,WeatherCatV1.15B25,2013-04-14 17:10:00,
2013-04-14 10:15:00,42.5,23.7,29.75,NW,319,24.0,27.0,47,0.00,,,0.00,661,WeatherCatV1.15B25,2013-04-14 17:15:00,
2013-04-14 10:20:00,42.8,22.9,29.75,NW,305,20.0,29.0,45,0.00,,,0.00,677,WeatherCatV1.15B25,2013-04-14 17:20:00,
2013-04-14 10:25:00,42.9,22.5,29.75,West,266,12.0,29.0,44,0.00,,,0.00,687,WeatherCatV1.15B25,2013-04-14 17:25:00,
2013-04-14 10:30:00,43.1,23.2,29.75,NW,310,18.0,18.0,45,0.00,,,0.00,700,WeatherCatV1.15B25,2013-04-14 17:30:00,
2013-04-14 10:35:00,43.1,22.7,29.75,WNW,303,21.0,29.0,44,0.00,,,0.00,712,WeatherCatV1.15B25,2013-04-14 17:35:00,
2013-04-14 10:40:00,43.2,22.8,29.75,NW,307,19.0,26.0,44,0.00,,,0.00,724,WeatherCatV1.15B25,2013-04-14 17:40:00,
2013-04-14 10:45:00,43.2,23.3,29.75,NW,304,18.0,20.0,45,0.00,,,0.00,737,WeatherCatV1.15B25,2013-04-14 17:45:00,
2013-04-14 10:50:00,43.5,24.1,29.75,West,266,11.0,20.0,46,0.00,,,0.00,749,WeatherCatV1.15B25,2013-04-14 17:50:00,
2013-04-14 10:55:00,43.8,23.9,29.75,West,266,23.0,26.0,45,0.00,,,0.00,759,WeatherCatV1.15B25,2013-04-14 17:55:00,
2013-04-14 11:00:00,44.2,23.7,29.75,WNW,297,22.0,27.0,44,0.00,,,0.00,770,WeatherCatV1.15B25,2013-04-14 18:00:00,
2013-04-14 11:05:00,44.2,24.2,29.75,WNW,302,20.0,24.0,45,0.00,,,0.00,779,WeatherCatV1.15B25,2013-04-14 18:05:00,
2013-04-14 11:10:00,44.5,22.9,29.75,WNW,299,16.0,30.0,42,0.00,,,0.00,791,WeatherCatV1.15B25,2013-04-14 18:10:00,
2013-04-14 11:15:00,44.6,24.6,29.74,WSW,251,11.0,22.0,45,0.00,,,0.00,800,WeatherCatV1.15B25,2013-04-14 18:15:00,
2013-04-14 11:20:00,44.5,23.4,29.74,West,270,13.0,25.0,43,0.00,,,0.00,814,WeatherCatV1.15B25,2013-04-14 18:20:00,
2013-04-14 11:25:00,44.5,24.5,29.74,WSW,254,8.0,19.0,45,0.00,,,0.00,823,WeatherCatV1.15B25,2013-04-14 18:25:00,
2013-04-14 11:30:00,44.2,23.1,29.74,WSW,241,9.0,30.0,43,0.00,,,0.00,831,WeatherCatV1.15B25,2013-04-14 18:30:00,
2013-04-14 11:35:00,44.2,23.1,29.74,WNW,301,20.0,25.0,43,0.00,,,0.00,837,WeatherCatV1.15B25,2013-04-14 18:35:00,
2013-04-14 11:40:00,44.3,23.2,29.74,West,265,13.0,25.0,43,0.00,,,0.00,846,WeatherCatV1.15B25,2013-04-14 18:40:00,
2013-04-14 11:45:00,44.8,23.1,29.72,WNW,299,23.0,32.0,42,0.00,,,0.00,856,WeatherCatV1.15B25,2013-04-14 18:45:00,
2013-04-14 11:50:00,45.1,24.0,29.72,NW,304,26.0,26.0,43,0.00,,,0.00,863,WeatherCatV1.15B25,2013-04-14 18:50:00,
2013-04-14 11:56:00,45.5,23.2,29.72,WNW,293,19.0,29.0,41,0.00,,,0.00,874,WeatherCatV1.15B25,2013-04-14 18:56:00,
2013-04-14 12:01:00,45.4,23.1,29.72,West,276,23.0,33.0,41,0.00,,,0.00,879,WeatherCatV1.15B25,2013-04-14 19:01:00,
2013-04-14 12:06:00,45.7,24.5,29.72,West,269,11.0,26.0,43,0.00,,,0.00,888,WeatherCatV1.15B25,2013-04-14 19:06:00,
2013-04-14 12:11:00,46.1,23.7,29.72,West,271,14.0,35.0,41,0.00,,,0.00,893,WeatherCatV1.15B25,2013-04-14 19:11:00,
2013-04-14 12:16:00,45.7,22.8,29.71,WNW,283,21.0,33.0,40,0.00,,,0.00,896,WeatherCatV1.15B25,2013-04-14 19:16:00,
2013-04-14 12:21:00,45.2,22.3,29.71,NW,319,32.0,38.0,40,0.00,,,0.00,904,WeatherCatV1.15B25,2013-04-14 19:21:00,
2013-04-14 12:26:00,45.2,22.9,29.71,SW,230,11.0,30.0,41,0.00,,,0.00,909,WeatherCatV1.15B25,2013-04-14 19:26:00,
2013-04-14 12:31:00,46.0,24.2,29.71,WNW,293,19.0,35.0,42,0.00,,,0.00,912,WeatherCatV1.15B25,2013-04-14 19:31:00,
2013-04-14 12:36:00,45.8,22.3,29.71,WNW,288,28.0,33.0,39,0.00,,,0.00,916,WeatherCatV1.15B25,2013-04-14 19:36:00,
2013-04-14 12:41:00,45.8,22.3,29.71,WSW,245,24.0,31.0,39,0.00,,,0.00,918,WeatherCatV1.15B25,2013-04-14 19:41:00,
2013-04-14 12:46:00,46.0,23.0,29.69,West,272,19.0,35.0,40,0.00,,,0.00,921,WeatherCatV1.15B25,2013-04-14 19:46:00,
2013-04-14 12:51:00,45.8,21.7,29.69,WNW,288,24.0,36.0,38,0.00,,,0.00,923,WeatherCatV1.15B25,2013-04-14 19:51:00,
2013-04-14 12:56:00,46.0,23.0,29.69,WNW,302,19.0,33.0,40,0.00,,,0.00,926,WeatherCatV1.15B25,2013-04-14 19:56:00,
2013-04-14 13:01:00,46.0,21.8,29.70,NW,305,27.0,35.0,38,0.00,,,0.00,926,WeatherCatV1.15B25,2013-04-14 20:01:00,
2013-04-14 13:06:00,45.2,21.1,29.70,NW,316,13.0,35.0,38,0.00,,,0.00,926,WeatherCatV1.15B25,2013-04-14 20:06:00,
2013-04-14 13:11:00,45.5,21.4,29.70,WNW,301,21.0,34.0,38,0.00,,,0.00,926,WeatherCatV1.15B25,2013-04-14 20:11:00,
2013-04-14 13:16:00,45.7,22.2,29.69,WNW,298,27.0,33.0,39,0.00,,,0.00,926,WeatherCatV1.15B25,2013-04-14 20:16:00,
2013-04-14 13:21:00,45.7,21.6,29.69,WNW,293,30.0,35.0,38,0.00,,,0.00,925,WeatherCatV1.15B25,2013-04-14 20:21:00,
2013-04-14 13:26:00,45.2,22.9,29.69,WSW,255,28.0,33.0,41,0.00,,,0.00,923,WeatherCatV1.15B25,2013-04-14 20:26:00,
2013-04-14 13:31:00,44.9,22.6,29.69,NW,311,28.0,30.0,41,0.00,,,0.00,923,WeatherCatV1.15B25,2013-04-14 20:31:00,
2013-04-14 13:36:00,45.2,22.3,29.69,WNW,302,26.0,40.0,40,0.00,,,0.00,919,WeatherCatV1.15B25,2013-04-14 20:36:00,
2013-04-14 13:41:00,44.8,22.6,29.69,WNW,300,26.0,36.0,41,0.00,,,0.00,925,WeatherCatV1.15B25,2013-04-14 20:41:00,
2013-04-14 13:46:00,45.4,23.7,29.69,WNW,293,19.0,33.0,42,0.00,,,0.00,919,WeatherCatV1.15B25,2013-04-14 20:46:00,
2013-04-14 13:51:00,45.8,22.3,29.69,NW,321,29.0,36.0,39,0.00,,,0.00,914,WeatherCatV1.15B25,2013-04-14 20:51:00,
2013-04-14 13:56:00,45.8,22.9,29.69,WNW,297,28.0,31.0,40,0.00,,,0.00,911,WeatherCatV1.15B25,2013-04-14 20:56:00,
2013-04-14 14:01:00,46.0,23.0,29.69,West,279,24.0,34.0,40,0.00,,,0.00,921,WeatherCatV1.15B25,2013-04-14 21:01:00,
2013-04-14 14:06:00,46.0,23.0,29.69,WNW,288,27.0,29.0,40,0.00,,,0.00,904,WeatherCatV1.15B25,2013-04-14 21:06:00,
2013-04-14 14:11:00,46.0,22.4,29.69,WNW,302,26.0,39.0,39,0.00,,,0.00,898,WeatherCatV1.15B25,2013-04-14 21:11:00,
2013-04-14 14:16:00,46.5,24.1,29.68,West,265,16.0,26.0,41,0.00,,,0.00,895,WeatherCatV1.15B25,2013-04-14 21:16:00,
2013-04-14 14:21:00,47.1,22.8,29.68,West,267,25.0,26.0,38,0.00,,,0.00,879,WeatherCatV1.15B25,2013-04-14 21:21:00,
2013-04-14 14:26:00,46.8,23.2,29.68,WNW,299,20.0,38.0,39,0.00,,,0.00,898,WeatherCatV1.15B25,2013-04-14 21:26:00,
2013-04-14 14:31:00,47.0,22.7,29.67,WSW,256,20.0,35.0,38,0.00,,,0.00,896,WeatherCatV1.15B25,2013-04-14 21:31:00,
2013-04-14 14:36:00,46.8,23.8,29.67,WNW,299,32.0,38.0,40,0.00,,,0.00,930,WeatherCatV1.15B25,2013-04-14 21:36:00,
2013-04-14 14:41:00,45.5,23.2,29.67,WNW,293,21.0,36.0,41,0.00,,,0.00,904,WeatherCatV1.15B25,2013-04-14 21:41:00,
2013-04-14 14:46:00,44.9,22.1,29.68,West,278,29.0,36.0,40,0.00,,,0.00,907,WeatherCatV1.15B25,2013-04-14 21:46:00,
2013-04-14 14:51:00,44.8,23.1,29.68,WNW,299,46.0,46.0,42,0.00,,,0.00,916,WeatherCatV1.15B25,2013-04-14 21:51:00,
2013-04-14 14:56:00,44.3,22.7,29.68,WNW,283,24.0,42.0,42,0.00,,,0.00,896,WeatherCatV1.15B25,2013-04-14 21:56:00,
2013-04-14 15:01:00,44.2,23.7,29.69,NW,313,28.0,46.0,44,0.00,,,0.00,863,WeatherCatV1.15B25,2013-04-14 22:01:00,
2013-04-14 15:06:00,43.9,23.4,29.69,West,269,15.0,29.0,44,0.00,,,0.00,833,WeatherCatV1.15B25,2013-04-14 22:06:00,
2013-04-14 15:11:00,43.9,22.9,29.69,NW,318,30.0,34.0,43,0.00,,,0.00,817,WeatherCatV1.15B25,2013-04-14 22:11:00,
2013-04-14 15:16:00,43.9,23.9,29.68,WNW,293,33.0,33.0,45,0.00,,,0.00,796,WeatherCatV1.15B25,2013-04-14 22:16:00,
2013-04-14 15:21:00,43.6,22.6,29.68,West,266,20.0,33.0,43,0.00,,,0.00,805,WeatherCatV1.15B25,2013-04-14 22:21:00,
2013-04-14 15:26:00,43.9,23.9,29.68,West,277,24.0,33.0,45,0.00,,,0.00,807,WeatherCatV1.15B25,2013-04-14 22:26:00,
2013-04-14 15:31:00,44.2,23.7,29.67,WNW,283,27.0,33.0,44,0.00,,,0.00,821,WeatherCatV1.15B25,2013-04-14 22:31:00,
2013-04-14 15:36:00,43.9,23.9,29.67,NW,318,19.0,33.0,45,0.00,,,0.00,773,WeatherCatV1.15B25,2013-04-14 22:36:00,
2013-04-14 15:41:00,44.2,24.2,29.67,West,264,14.0,38.0,45,0.00,,,0.00,679,WeatherCatV1.15B25,2013-04-14 22:41:00,
2013-04-14 15:46:00,43.9,23.4,29.67,WNW,283,27.0,33.0,44,0.00,,,0.00,633,WeatherCatV1.15B25,2013-04-14 22:46:00,
2013-04-14 15:51:00,44.1,24.1,29.67,West,268,22.0,35.0,45,0.00,,,0.00,635,WeatherCatV1.15B25,2013-04-14 22:51:00,
2013-04-14 15:56:00,43.3,23.4,29.67,WNW,293,28.0,42.0,45,0.00,,,0.00,680,WeatherCatV1.15B25,2013-04-14 22:56:00,
2013-04-14 16:01:00,43.3,24.9,29.66,West,279,27.0,33.0,48,0.00,,,0.00,656,WeatherCatV1.15B25,2013-04-14 23:01:00,
2013-04-14 16:06:00,43.3,24.4,29.66,West,276,25.0,33.0,47,0.00,,,0.00,666,WeatherCatV1.15B25,2013-04-14 23:06:00,
2013-04-14 16:11:00,42.8,25.0,29.66,NW,305,26.0,36.0,49,0.00,,,0.00,606,WeatherCatV1.15B25,2013-04-14 23:11:00,
2013-04-14 16:16:00,42.9,24.6,29.68,NW,306,29.0,29.0,48,0.00,,,0.00,594,WeatherCatV1.15B25,2013-04-14 23:16:00,
2013-04-14 16:21:00,42.3,25.5,29.68,WSW,249,25.0,35.0,51,0.00,,,0.00,635,WeatherCatV1.15B25,2013-04-14 23:21:00,
2013-04-14 16:26:00,42.2,23.9,29.68,WNW,283,27.0,33.0,48,0.00,,,0.00,123,WeatherCatV1.15B25,2013-04-14 23:26:00,
2013-04-14 16:31:00,41.5,23.8,29.67,NW,310,24.0,47.0,49,0.00,,,0.00,642,WeatherCatV1.15B25,2013-04-14 23:31:00,
2013-04-14 16:36:00,41.8,24.5,29.67,NW,312,33.0,34.0,50,0.00,,,0.00,628,WeatherCatV1.15B25,2013-04-14 23:36:00,
2013-04-14 16:41:00,41.9,24.6,29.67,WNW,288,32.0,34.0,50,0.00,,,0.00,659,WeatherCatV1.15B25,2013-04-14 23:41:00,
2013-04-14 16:46:00,42.2,24.9,29.67,NW,313,27.0,36.0,50,0.00,,,0.00,148,WeatherCatV1.15B25,2013-04-14 23:46:00,
2013-04-14 16:51:00,41.8,24.1,29.67,WNW,283,29.0,45.0,49,0.00,,,0.00,601,WeatherCatV1.15B25,2013-04-14 23:51:00,
2013-04-14 16:56:00,41.2,24.5,29.67,WNW,293,26.0,43.0,51,0.00,,,0.00,253,WeatherCatV1.15B25,2013-04-14 23:56:00,
2013-04-14 17:01:00,41.1,24.8,29.68,NW,321,18.0,33.0,52,0.00,,,0.00,543,WeatherCatV1.15B25,2013-04-15 00:01:00,
2013-04-14 17:06:00,40.8,25.0,29.68,WSW,251,18.0,36.0,53,0.00,,,0.00,100,WeatherCatV1.15B25,2013-04-15 00:06:00,
2013-04-14 17:11:00,40.9,25.1,29.68,WNW,288,22.0,39.0,53,0.00,,,0.00,118,WeatherCatV1.15B25,2013-04-15 00:11:00,
2013-04-14 17:17:00,40.3,25.0,29.67,WNW,288,18.0,40.0,54,0.00,,,0.00,517,WeatherCatV1.15B25,2013-04-15 00:17:00,
2013-04-14 17:22:00,40.1,25.2,29.67,WNW,303,21.0,32.0,55,0.00,,,0.00,123,WeatherCatV1.15B25,2013-04-15 00:22:00,
2013-04-14 17:27:00,39.8,25.4,29.67,NW,324,20.0,39.0,56,0.00,,,0.00,239,WeatherCatV1.15B25,2013-04-15 00:27:00,
2013-04-14 17:32:00,39.5,25.5,29.67,WNW,288,24.0,33.0,57,0.00,,,0.00,137,WeatherCatV1.15B25,2013-04-15 00:32:00,
2013-04-14 17:37:00,39.2,25.7,29.67,WNW,283,20.0,32.0,58,0.00,,,0.00,236,WeatherCatV1.15B25,2013-04-15 00:37:00,
2013-04-14 17:42:00,39.2,25.7,29.67,NW,306,38.0,38.0,58,0.00,,,0.00,132,WeatherCatV1.15B25,2013-04-15 00:42:00,
2013-04-14 17:48:00,39.1,25.2,29.67,WNW,293,20.0,37.0,57,0.00,,,0.00,107,WeatherCatV1.15B25,2013-04-15 00:48:00,
2013-04-14 17:53:00,38.9,25.4,29.67,WNW,299,26.0,35.0,58,0.00,,,0.00,130,WeatherCatV1.15B25,2013-04-15 00:53:00,
2013-04-14 17:58:00,38.9,25.4,29.67,WNW,293,29.0,39.0,58,0.00,,,0.00,86,WeatherCatV1.15B25,2013-04-15 00:58:00,
2013-04-14 18:03:00,39.2,24.8,29.67,West,279,20.0,36.0,56,0.00,,,0.00,105,WeatherCatV1.15B25,2013-04-15 01:03:00,
2013-04-14 18:08:00,39.2,24.8,29.67,West,260,26.0,36.0,56,0.00,,,0.00,107,WeatherCatV1.15B25,2013-04-15 01:08:00,
2013-04-14 18:13:00,39.1,24.7,29.67,NW,305,19.0,31.0,56,0.00,,,0.00,62,WeatherCatV1.15B25,2013-04-15 01:13:00,
2013-04-14 18:18:00,39.1,24.3,29.67,West,267,19.0,33.0,55,0.00,,,0.00,77,WeatherCatV1.15B25,2013-04-15 01:18:00,
2013-04-14 18:23:00,38.9,24.6,29.67,NW,320,36.0,38.0,56,0.00,,,0.00,74,WeatherCatV1.15B25,2013-04-15 01:23:00,
2013-04-14 18:28:00,38.9,25.0,29.67,West,268,31.0,31.0,57,0.00,,,0.00,91,WeatherCatV1.15B25,2013-04-15 01:28:00,
2013-04-14 18:33:00,38.8,24.5,29.66,NW,320,25.0,35.0,56,0.00,,,0.00,62,WeatherCatV1.15B25,2013-04-15 01:33:00,
2013-04-14 18:38:00,38.6,24.7,29.66,WNW,288,19.0,35.0,57,0.00,,,0.00,67,WeatherCatV1.15B25,2013-04-15 01:38:00,
2013-04-14 18:43:00,38.5,24.6,29.66,WNW,283,28.0,32.0,57,0.00,,,0.00,42,WeatherCatV1.15B25,2013-04-15 01:43:00,
2013-04-14 18:48:00,38.3,24.8,29.65,WSW,257,20.0,35.0,58,0.00,,,0.00,33,WeatherCatV1.15B25,2013-04-15 01:48:00,
2013-04-14 18:53:00,38.3,23.6,29.65,WNW,301,30.0,41.0,55,0.00,,,0.00,42,WeatherCatV1.15B25,2013-04-15 01:53:00,
2013-04-14 18:58:00,38.2,24.3,29.65,NW,312,17.0,25.0,57,0.00,,,0.00,32,WeatherCatV1.15B25,2013-04-15 01:58:00,
2013-04-14 19:03:00,37.9,24.9,29.66,SW,231,12.0,35.0,59,0.00,,,0.00,28,WeatherCatV1.15B25,2013-04-15 02:03:00,
2013-04-14 19:08:00,37.6,24.6,29.66,NW,312,29.0,33.0,59,0.00,,,0.00,21,WeatherCatV1.15B25,2013-04-15 02:08:00,
2013-04-14 19:13:00,37.3,24.7,29.66,West,273,15.0,32.0,60,0.00,,,0.00,18,WeatherCatV1.15B25,2013-04-15 02:13:00,
2013-04-14 19:18:00,37.0,24.8,29.64,West,261,24.0,28.0,61,0.00,,,0.00,12,WeatherCatV1.15B25,2013-04-15 02:18:00,
2013-04-14 19:23:00,36.8,25.0,29.64,WSW,237,11.0,28.0,62,0.00,,,0.00,11,WeatherCatV1.15B25,2013-04-15 02:23:00,
2013-04-14 19:28:00,36.5,24.7,29.64,WSW,256,18.0,19.0,62,0.00,,,0.00,7,WeatherCatV1.15B25,2013-04-15 02:28:00,
2013-04-14 19:33:00,36.3,24.9,29.64,WNW,293,23.0,23.0,63,0.00,,,0.00,5,WeatherCatV1.15B25,2013-04-15 02:33:00,
2013-04-14 19:38:00,36.2,24.8,29.64,SSW,206,6.0,29.0,63,0.00,,,0.00,0,WeatherCatV1.15B25,2013-04-15 02:38:00,
2013-04-14 19:43:00,36.2,25.6,29.64,West,269,11.0,25.0,65,0.00,,,0.00,0,WeatherCatV1.15B25,2013-04-15 02:43:00,
2013-04-14 19:48:00,35.9,25.3,29.66,WSW,245,20.0,29.0,65,0.00,,,0.00,0,WeatherCatV1.15B25,2013-04-15 02:48:00,
2013-04-14 19:53:00,35.8,25.6,29.66,WSW,247,8.0,17.0,66,0.00,,,0.00,0,WeatherCatV1.15B25,2013-04-15 02:53:00,
2013-04-14 19:58:00,35.8,25.6,29.66,WSW,249,18.0,24.0,66,0.00,,,0.00,0,WeatherCatV1.15B25,2013-04-15 02:58:00,
2013-04-14 20:03:00,35.6,25.7,29.65,SW,226,24.0,30.0,67,0.00,,,0.00,0,WeatherCatV1.15B25,2013-04-15 03:03:00,
2013-04-14 20:08:00,35.3,25.8,29.65,WNW,283,19.0,30.0,68,0.00,,,0.00,0,WeatherCatV1.15B25,2013-04-15 03:08:00,
2013-04-14 20:13:00,35.2,25.7,29.65,WSW,247,13.0,33.0,68,0.00,,,0.00,0,WeatherCatV1.15B25,2013-04-15 03:13:00,
2013-04-14 20:18:00,35.0,25.9,29.64,WNW,288,20.0,33.0,69,0.00,,,0.00,0,WeatherCatV1.15B25,2013-04-15 03:18:00,
2013-04-14 20:23:00,35.0,25.9,29.64,West,274,21.0,25.0,69,0.00,,,0.00,0,WeatherCatV1.15B25,2013-04-15 03:23:00,
2013-04-14 20:28:00,35.0,25.5,29.64,WNW,293,20.0,29.0,68,0.00,,,0.00,0,WeatherCatV1.15B25,2013-04-15 03:28:00,
2013-04-14 20:33:00,35.0,25.5,29.65,West,274,14.0,21.0,68,0.00,,,0.00,0,WeatherCatV1.15B25,2013-04-15 03:33:00,
2013-04-14 20:38:00,35.0,25.2,29.65,WNW,298,18.0,25.0,67,0.00,,,0.00,0,WeatherCatV1.15B25,2013-04-15 03:38:00,
2013-04-14 20:43:00,35.2,25.0,29.65,West,271,25.0,25.0,66,0.00,,,0.00,0,WeatherCatV1.15B25,2013-04-15 03:43:00,
2013-04-14 20:48:00,35.3,24.7,29.64,WSW,237,10.0,28.0,65,0.00,,,0.00,0,WeatherCatV1.15B25,2013-04-15 03:48:00,
2013-04-14 20:53:00,35.3,24.7,29.64,West,277,13.0,31.0,65,0.00,,,0.00,0,WeatherCatV1.15B25,2013-04-15 03:53:00,
2013-04-14 20:58:00,35.3,24.7,29.64,SSW,208,5.0,29.0,65,0.00,,,0.00,0,WeatherCatV1.15B25,2013-04-15 03:58:00,
2013-04-14 21:00:00,35.3,24.7,29.64,WNW,283,11.0,17.0,65,0.00,,,0.00,0,WeatherCatV1.15B25,2013-04-15 04:00:00,
2013-04-14 21:01:00,35.2,24.6,29.64,West,278,12.0,23.0,65,0.00,,,0.00,0,WeatherCatV1.15B25,2013-04-15 04:01:00,
2013-04-14 21:02:00,35.2,24.6,29.64,West,261,19.0,25.0,65,0.00,,,0.00,0,WeatherCatV1.15B25,2013-04-15 04:02:00,
2013-04-14 21:07:00,35.0,24.4,29.64,SW,224,13.0,14.0,65,0.00,,,0.00,0,WeatherCatV1.15B25,2013-04-15 04:07:00,
2013-04-14 21:12:00,34.9,24.0,29.64,SW,223,9.0,30.0,64,0.00,,,0.00,0,WeatherCatV1.15B25,2013-04-15 04:12:00,
2013-04-14 21:17:00,34.9,24.0,29.65,West,275,14.0,25.0,64,0.00,,,0.00,0,WeatherCatV1.15B25,2013-04-15 04:17:00,
2013-04-14 21:23:00,34.7,24.2,29.65,SW,222,13.0,29.0,65,0.00,,,0.00,0,WeatherCatV1.15B25,2013-04-15 04:23:00,
2013-04-14 21:28:00,34.4,24.2,29.65,WNW,301,9.0,24.0,66,0.00,,,0.00,0,WeatherCatV1.15B25,2013-04-15 04:28:00,
2013-04-14 21:34:00,34.4,24.2,29.65,SW,236,10.0,21.0,66,0.00,,,0.00,0,WeatherCatV1.15B25,2013-04-15 04:34:00,
2013-04-14 21:36:00,34.4,23.9,29.65,WNW,283,15.0,28.0,65,0.00,,,0.00,0,WeatherCatV1.15B25,2013-04-15 04:36:00,
2013-04-14 21:41:00,34.3,23.8,29.65,SSW,207,6.0,29.0,65,0.00,,,0.00,0,WeatherCatV1.15B25,2013-04-15 04:41:00,
2013-04-14 21:46:00,34.3,23.8,29.64,West,264,7.0,22.0,65,0.00,,,0.00,0,WeatherCatV1.15B25,2013-04-15 04:46:00,
2013-04-14 21:51:00,34.3,23.8,29.64,WSW,251,13.0,28.0,65,0.00,,,0.00,0,WeatherCatV1.15B25,2013-04-15 04:51:00,
2013-04-14 21:56:00,34.3,23.8,29.64,West,278,11.0,26.0,65,0.00,,,0.00,0,WeatherCatV1.15B25,2013-04-15 04:56:00,
2013-04-14 22:01:00,34.1,24.0,29.65,SSW,213,5.0,13.0,66,0.00,,,0.00,0,WeatherCatV1.15B25,2013-04-15 05:01:00,
2013-04-14 22:06:00,34.1,24.0,29.65,SW,227,6.0,22.0,66,0.00,,,0.00,0,WeatherCatV1.15B25,2013-04-15 05:06:00,
2013-04-14 22:11:00,34.1,24.0,29.65,SW,230,17.0,28.0,66,0.00,,,0.00,0,WeatherCatV1.15B25,2013-04-15 05:11:00,
2013-04-14 22:16:00,34.0,23.9,29.63,West,262,24.0,27.0,66,0.00,,,0.00,0,WeatherCatV1.15B25,2013-04-15 05:16:00,
2013-04-14 22:21:00,34.0,23.9,29.63,WNW,303,11.0,19.0,66,0.00,,,0.00,0,WeatherCatV1.15B25,2013-04-15 05:21:00,
2013-04-14 22:26:00,33.8,24.0,29.63,SW,232,18.0,25.0,67,0.00,,,0.00,0,WeatherCatV1.15B25,2013-04-15 05:26:00,
2013-04-14 22:31:00,33.7,24.3,29.62,WSW,247,12.0,31.0,68,0.00,,,0.00,0,WeatherCatV1.15B25,2013-04-15 05:31:00,
2013-04-14 22:36:00,33.5,24.4,29.62,WNW,283,18.0,28.0,69,0.00,,,0.00,0,WeatherCatV1.15B25,2013-04-15 05:36:00,
2013-04-14 22:41:00,33.4,24.7,29.62,WSW,243,19.0,21.0,70,0.00,,,0.00,0,WeatherCatV1.15B25,2013-04-15 05:41:00,
2013-04-14 22:46:00,33.2,24.5,29.64,West,272,12.0,21.0,70,0.00,,,0.00,0,WeatherCatV1.15B25,2013-04-15 05:46:00,
2013-04-14 22:51:00,33.1,24.7,29.64,WNW,303,15.0,26.0,71,0.00,,,0.00,0,WeatherCatV1.15B25,2013-04-15 05:51:00,
2013-04-14 22:56:00,33.1,24.4,29.64,West,276,11.0,19.0,70,0.00,,,0.00,0,WeatherCatV1.15B25,2013-04-15 05:56:00,
2013-04-14 23:01:00,33.1,24.7,29.63,WNW,288,6.0,26.0,71,0.00,,,0.00,0,WeatherCatV1.15B25,2013-04-15 06:01:00,
2013-04-14 23:06:00,33.1,24.4,29.63,NNW,337,16.0,26.0,70,0.00,,,0.00,0,WeatherCatV1.15B25,2013-04-15 06:06:00,
2013-04-14 23:11:00,33.1,24.4,29.63,WNW,283,12.0,27.0,70,0.00,,,0.00,0,WeatherCatV1.15B25,2013-04-15 06:11:00,
2013-04-14 23:16:00,33.1,24.7,29.61,West,278,14.0,26.0,71,0.00,,,0.00,0,WeatherCatV1.15B25,2013-04-15 06:16:00,
2013-04-14 23:21:00,33.1,25.1,29.61,WSW,245,13.0,19.0,72,0.00,,,0.00,0,WeatherCatV1.15B25,2013-04-15 06:21:00,
2013-04-14 23:26:00,32.9,24.9,29.61,West,261,13.0,26.0,72,0.00,,,0.00,0,WeatherCatV1.15B25,2013-04-15 06:26:00,
2013-04-14 23:31:00,32.9,25.2,29.61,West,276,9.0,22.0,73,0.00,,,0.00,0,WeatherCatV1.15B25,2013-04-15 06:31:00,
2013-04-14 23:36:00,32.8,25.4,29.61,NW,312,17.0,22.0,74,0.00,,,0.00,0,WeatherCatV1.15B25,2013-04-15 06:36:00,
2013-04-14 23:41:00,32.8,25.4,29.61,WNW,301,9.0,29.0,74,0.00,,,0.00,0,WeatherCatV1.15B25,2013-04-15 06:41:00,
2013-04-14 23:46:00,32.8,25.8,29.61,West,277,18.0,22.0,75,0.00,,,0.00,0,WeatherCatV1.15B25,2013-04-15 06:46:00,
2013-04-14 23:51:00,32.9,25.9,29.61,SSW,213,7.0,17.0,75,0.00,,,0.00,0,WeatherCatV1.15B25,2013-04-15 06:51:00,
2013-04-14 23:56:00,32.8,25.8,29.61,WNW,288,15.0,25.0,75,0.00,,,0.00,0,WeatherCatV1.15B25,2013-04-15 06:56:00,